Flight Track Log - Related Links

Times and Time Zones

All times are in EDT time to prevent confusion due to time zone crossing. See the EJA982 flight status page for this flight to view local times or setup timezone preferences in your user account.

Time Position Orientation Groundspeed Altitude Reporting Facility
EDT Latitude Longitude Course Direction KTS MPH feet Rate Location/Type
Fri 11:16:32 AM 34.1731 -118.3597 229° Southwest 170 196 2,200  Level Los Angeles Center
Fri 11:17:34 AM 34.1347 -118.4133 229° Southwest 219 252 5,700 3,744 Climbing Los Angeles Center
Fri 11:18:37 AM 34.1975 -118.4550 331° Northwest 238 274 10,000 3,120 Climbing Los Angeles Center
Fri 11:19:39 AM 34.2706 -118.4831 342° North 281 323 12,200 2,371 Climbing Los Angeles Center
Fri 11:20:41 AM 34.3572 -118.4803 North 330 380 14,900 2,710 Climbing Los Angeles Center
Fri 11:21:43 AM 34.4139 -118.3983 50° Northeast 316 364 17,800 2,468 Climbing Los Angeles Center
Fri 11:22:45 AM 34.4486 -118.3069 65° Northeast 304 350 20,000 1,839 Climbing Los Angeles Center
Fri 11:23:47 AM 34.4742 -118.2281 69° East 311 358 21,600 1,620 Climbing Los Angeles Center
Fri 11:25:02 AM 34.5206 -118.0719 70° East 335 386 23,700 1,248 Climbing Los Angeles Center
Fri 11:26:16 AM 34.5553 -117.9561 70° East 362 417 24,700 971 Climbing Los Angeles Center
Fri 11:27:18 AM 34.6006 -117.8061 70° East 394 453 25,900 1,113 Climbing Los Angeles Center
Fri 11:28:20 AM 34.6544 -117.6517 67° East 418 481 27,000 768 Climbing Los Angeles Center
Fri 11:29:23 AM 34.7183 -117.5242 59° Northeast 442 509 27,500 672 Climbing Los Angeles Center
Fri 11:30:25 AM 34.7914 -117.4003 54° Northeast 455 524 28,400 919 Climbing Los Angeles Center
Fri 11:31:27 AM 34.8650 -117.2761 54° Northeast 458 527 29,400 1,065 Climbing Los Angeles Center
Fri 11:32:29 AM 34.9547 -117.1239 54° Northeast 465 535 30,600 1,065 Climbing Los Angeles Center
Fri 11:33:31 AM 35.0311 -116.9939 54° Northeast 472 543 31,600 968 Climbing Los Angeles Center
Fri 11:34:33 AM 35.1086 -116.8625 54° Northeast 477 549 32,600 882 Climbing Los Angeles Center
Fri 11:35:47 AM 35.1861 -116.7275 55° Northeast 485 558 33,600 964 Climbing Los Angeles Center
Fri 11:36:50 AM 35.2811 -116.5650 54° Northeast 490 564 34,800 1,152 Climbing Los Angeles Center
Fri 11:37:52 AM 35.3825 -116.4053 52° Northeast 493 567 36,000 1,065 Climbing Los Angeles Center
Fri 11:38:54 AM 35.4819 -116.2847 45° Northeast 501 577 37,000 882 Climbing Los Angeles Center
Fri 11:40:08 AM 35.5775 -116.1586 47° Northeast 504 580 38,000 964 Climbing Los Angeles Center
Fri 11:41:11 AM 35.6803 -115.9931 53° Northeast 495 570 39,200 1,152 Climbing Los Angeles Center
Fri 11:42:13 AM 35.7642 -115.8167 60° Northeast 504 580 40,400 871 Climbing Los Angeles Center
Fri 11:43:15 AM 35.8353 -115.6653 60° Northeast 507 583 41,000 290 Climbing Los Angeles Center
Fri 11:44:17 AM 35.9089 -115.5108 59° Northeast 518 596 41,000  Level Los Angeles Center
Fri 11:45:19 AM 35.9861 -115.3542 59° Northeast 534 615 41,000  Level Los Angeles Center
Fri 11:46:21 AM 36.0622 -115.1967 59° Northeast 538 619 41,000  Level Los Angeles Center
Fri 11:47:23 AM 36.1800 -115.0289 49° Northeast 545 627 41,000  Level Los Angeles Center
Fri 11:48:25 AM 36.2850 -114.8981 45° Northeast 542 624 41,000  Level Los Angeles Center
Fri 11:49:27 AM 36.3689 -114.7900 46° Northeast 545 627 41,000  Level Los Angeles Center
Fri 11:50:30 AM 36.4939 -114.6289 46° Northeast 544 626 41,000  Level Los Angeles Center
Fri 11:51:32 AM 36.5969 -114.4919 47° Northeast 545 627 41,000  Level Los Angeles Center
Fri 11:52:33 AM 36.7017 -114.3561 46° Northeast 545 627 41,000  Level Los Angeles Center
Fri 11:53:36 AM 36.8428 -114.2150 39° Northeast 547 629 41,000  Level Los Angeles Center
Fri 11:54:38 AM 36.9703 -114.1175 31° Northeast 541 623 41,000  Level Los Angeles Center
Fri 11:55:40 AM 37.0978 -114.0186 32° Northeast 540 621 41,000  Level Los Angeles Center
Fri 11:56:42 AM 37.2250 -113.9206 32° Northeast 538 619 41,000  Level Los Angeles Center
Fri 11:57:44 AM 37.3564 -113.8178 32° Northeast 536 617 41,000  Level Los Angeles Center
Fri 11:58:59 AM 37.4831 -113.7169 32° Northeast 536 617 41,000  Level Los Angeles Center
Fri 12:00:01 PM 37.6372 -113.5975 32° Northeast 538 619 41,000  Level Los Angeles Center
Fri 12:00:37 PM 37.7375 -113.5169 32° Northeast 536 617 41,000  Level Salt Lake Center
Fri 12:01:39 PM 37.8647 -113.4169 32° Northeast 535 616 41,000  Level Salt Lake Center
Fri 12:02:41 PM 37.9911 -113.3147 33° Northeast 534 615 41,000  Level Salt Lake Center
Fri 12:03:43 PM 38.1164 -113.2128 33° Northeast 532 612 41,000  Level Salt Lake Center
Fri 12:04:45 PM 38.2428 -113.1106 32° Northeast 534 615 41,000  Level Salt Lake Center
Fri 12:05:47 PM 38.3664 -113.0067 33° Northeast 531 611 41,000  Level Salt Lake Center
Fri 12:06:49 PM 38.4781 -112.8786 42° Northeast 534 615 41,000  Level Salt Lake Center
Fri 12:07:51 PM 38.5881 -112.7497 42° Northeast 536 617 41,000  Level Salt Lake Center
Fri 12:08:53 PM 38.7214 -112.5947 42° Northeast 536 617 41,000  Level Salt Lake Center
Fri 12:09:55 PM 38.8317 -112.4644 43° Northeast 538 619 41,000  Level Salt Lake Center
Fri 12:10:57 PM 38.9419 -112.3333 43° Northeast 541 623 41,000  Level Salt Lake Center
Fri 12:11:59 PM 39.0525 -112.2019 43° Northeast 540 621 41,000  Level Salt Lake Center
Fri 12:13:01 PM 39.1625 -112.0708 43° Northeast 539 620 41,000  Level Salt Lake Center
Fri 12:14:03 PM 39.2761 -111.9350 43° Northeast 539 620 41,000  Level Salt Lake Center
Fri 12:15:05 PM 39.3853 -111.8028 43° Northeast 538 619 41,000  Level Salt Lake Center
Fri 12:16:07 PM 39.5153 -111.6458 43° Northeast 537 618 41,000  Level Salt Lake Center
Fri 12:17:09 PM 39.6231 -111.5142 43° Northeast 534 615 41,000  Level Salt Lake Center
Fri 12:18:11 PM 39.7317 -111.3806 43° Northeast 540 621 41,000  Level Salt Lake Center
Fri 12:19:13 PM 39.8408 -111.2492 43° Northeast 538 619 41,000  Level Salt Lake Center
Fri 12:20:15 PM 39.9636 -111.0992 43° Northeast 539 620 41,000  Level Salt Lake Center
Fri 12:21:17 PM 40.0783 -110.9564 44° Northeast 535 616 41,000  Level Salt Lake Center
Fri 12:22:19 PM 40.1886 -110.8192 44° Northeast 539 620 41,000  Level Salt Lake Center
Fri 12:23:21 PM 40.2928 -110.6883 44° Northeast 541 623 41,000  Level Salt Lake Center
Fri 12:24:23 PM 40.4150 -110.5344 44° Northeast 542 624 41,000  Level Salt Lake Center
Fri 12:25:25 PM 40.5186 -110.4028 44° Northeast 540 621 41,000  Level Salt Lake Center
Fri 12:26:27 PM 40.6358 -110.2544 44° Northeast 540 621 41,000  Level Salt Lake Center
Fri 12:27:29 PM 40.7428 -110.1189 44° Northeast 537 618 41,000  Level Salt Lake Center
Fri 12:28:31 PM 40.8592 -109.9711 44° Northeast 538 619 41,000  Level Salt Lake Center
Fri 12:29:33 PM 40.9611 -109.8392 44° Northeast 536 617 41,000  Level Salt Lake Center
Fri 12:30:35 PM 41.0800 -109.6864 44° Northeast 535 616 41,000  Level Salt Lake Center
Fri 12:31:37 PM 41.1814 -109.5539 45° Northeast 534 615 41,000  Level Salt Lake Center
Fri 12:32:39 PM 41.2833 -109.4208 44° Northeast 535 616 41,000  Level Salt Lake Center
Fri 12:33:41 PM 41.4019 -109.2664 44° Northeast 532 612 41,000  Level Salt Lake Center
Fri 12:34:43 PM 41.5131 -109.1222 44° Northeast 548 631 41,000  Level Salt Lake Center
Fri 12:35:46 PM 41.6139 -108.9794 47° Northeast 550 633 41,000  Level Salt Lake Center
Fri 12:36:48 PM 41.7150 -108.7992 53° Northeast 544 626 41,000  Level Salt Lake Center
Fri 12:37:50 PM 41.8025 -108.6450 53° Northeast 543 625 41,000  Level Salt Lake Center
Fri 12:38:52 PM 41.9039 -108.4664 53° Northeast 540 621 41,000  Level Salt Lake Center
Fri 12:39:54 PM 41.9917 -108.3136 52° Northeast 540 621 41,000  Level Salt Lake Center
Fri 12:40:56 PM 42.0922 -108.1325 53° Northeast 541 623 41,000  Level Salt Lake Center
Fri 12:42:49 PM 42.2625 -107.8169 54° Northeast 542 624 41,000  Level Denver Center
Fri 12:43:51 PM 42.3489 -107.6608 53° Northeast 543 625 41,000  Level Denver Center
Fri 12:44:53 PM 42.4342 -107.5044 54° Northeast 541 623 41,000  Level Denver Center
Fri 12:46:06 PM 42.5483 -107.2953 53° Northeast 541 623 41,000  Level Salt Lake Center
Fri 12:47:08 PM 42.6475 -107.1122 54° Northeast 540 621 41,000  Level Salt Lake Center
Fri 12:48:10 PM 42.7289 -106.9631 53° Northeast 540 621 41,000  Level Salt Lake Center
Fri 12:49:01 PM 42.8139 -106.8036 54° Northeast 541 623 41,000  Level Denver Center
Fri 12:50:03 PM 42.8978 -106.6433 54° Northeast 542 624 41,000  Level Denver Center
Fri 12:51:05 PM 42.9967 -106.4567 54° Northeast 541 623 41,000  Level Denver Center
Fri 12:52:07 PM 43.0817 -106.2961 54° Northeast 543 625 41,000  Level Denver Center
Fri 12:53:09 PM 43.1603 -106.1292 57° Northeast 544 626 41,000  Level Denver Center
Fri 12:54:11 PM 43.2514 -105.9331 57° Northeast 543 625 41,000  Level Denver Center
Fri 12:55:14 PM 43.3294 -105.7661 57° Northeast 542 624 41,000  Level Denver Center
Fri 12:56:16 PM 43.4197 -105.5725 57° Northeast 538 619 41,000  Level Denver Center
Fri 12:57:18 PM 43.4978 -105.4000 58° Northeast 548 631 41,000  Level Denver Center
Fri 12:58:20 PM 43.5883 -105.2025 58° Northeast 547 629 41,000  Level Denver Center
Fri 12:59:22 PM 43.6636 -105.0336 58° Northeast 542 624 41,000  Level Denver Center
Fri 01:00:24 PM 43.7517 -104.8389 58° Northeast 536 617 41,000  Level Denver Center
Fri 01:01:26 PM 43.8267 -104.6689 59° Northeast 538 619 41,000  Level Denver Center
Fri 01:02:28 PM 43.9017 -104.5008 58° Northeast 536 617 41,000  Level Denver Center
Fri 01:03:30 PM 43.9878 -104.3047 59° Northeast 533 613 41,000  Level Denver Center
Fri 01:04:32 PM 44.0619 -104.1383 58° Northeast 528 608 41,000  Level Denver Center
Fri 01:05:34 PM 44.1475 -103.9403 59° Northeast 534 615 41,000  Level Denver Center
Fri 01:06:36 PM 44.2214 -103.7708 59° Northeast 533 613 41,000  Level Denver Center
Fri 01:07:38 PM 44.3064 -103.5731 59° Northeast 533 613 41,000  Level Denver Center
Fri 01:08:40 PM 44.3794 -103.3986 60° Northeast 539 620 41,000  Level Denver Center
Fri 01:09:42 PM 44.4589 -103.2158 59° Northeast 536 617 41,000  Level Denver Center
Fri 01:10:44 PM 44.5369 -103.0397 58° Northeast 533 613 41,000  Level Denver Center
Fri 01:11:47 PM 44.6108 -102.8586 60° Northeast 535 616 41,000  Level Denver Center
Fri 01:12:49 PM 44.7006 -102.6397 60° Northeast 538 619 41,000  Level Denver Center
Fri 01:13:51 PM 44.7769 -102.4578 59° Northeast 540 621 41,000  Level Denver Center
Fri 01:14:53 PM 44.8517 -102.2731 60° Northeast 540 621 41,000  Level Denver Center
Fri 01:15:55 PM 44.9269 -102.0900 60° Northeast 540 621 41,000  Level Denver Center
Fri 01:16:57 PM 45.0025 -101.9078 60° Northeast 539 620 41,000  Level Denver Center
Fri 01:17:59 PM 45.0747 -101.7250 61° Northeast 534 615 41,000  Level Denver Center
Fri 01:19:01 PM 45.1456 -101.5381 62° Northeast 536 617 41,000  Level Denver Center
Fri 01:20:27 PM 45.2567 -101.2378 62° Northeast 537 618 41,000  Level Minneapolis Center
Fri 01:21:29 PM 45.3256 -101.0508 62° Northeast 535 616 41,000  Level Minneapolis Center
Fri 01:22:31 PM 45.3933 -100.8628 63° Northeast 533 613 41,000  Level Minneapolis Center
Fri 01:23:33 PM 45.4489 -100.7136 62° Northeast 532 612 41,000  Level Minneapolis Center
Fri 01:24:35 PM 45.5169 -100.5247 63° Northeast 532 612 41,000  Level Minneapolis Center
Fri 01:25:38 PM 45.5997 -100.2958 63° Northeast 536 617 41,000  Level Minneapolis Center
Fri 01:26:40 PM 45.6678 -100.1058 63° Northeast 534 615 41,000  Level Minneapolis Center
Fri 01:27:42 PM 45.7494 -99.8764 63° Northeast 537 618 41,000  Level Minneapolis Center
Fri 01:28:56 PM 45.8161 -99.6836 64° Northeast 538 619 41,000  Level Minneapolis Center
Fri 01:29:58 PM 45.8981 -99.4531 63° Northeast 539 620 41,000  Level Minneapolis Center
Fri 01:31:00 PM 45.9647 -99.2603 63° Northeast 538 619 41,000  Level Minneapolis Center
Fri 01:32:02 PM 46.0311 -99.0669 64° Northeast 538 619 41,000  Level Minneapolis Center
Fri 01:33:04 PM 46.1047 -98.8531 64° Northeast 538 619 41,000  Level Minneapolis Center
Fri 01:34:07 PM 46.1700 -98.6606 64° Northeast 538 619 41,000  Level Minneapolis Center
Fri 01:35:09 PM 46.2344 -98.4664 64° Northeast 539 620 41,000  Level Minneapolis Center
Fri 01:36:11 PM 46.2992 -98.2725 64° Northeast 539 620 41,000  Level Minneapolis Center
Fri 01:37:25 PM 46.3611 -98.0742 66° East 543 625 41,000  Level Minneapolis Center
Fri 01:38:27 PM 46.4508 -97.8011 64° Northeast 540 621 41,000 -726 Level Minneapolis Center
Fri 01:39:29 PM 46.5133 -97.6094 65° Northeast 532 612 39,500 -1,790 Descending Minneapolis Center
Fri 01:40:31 PM 46.5769 -97.4128 65° Northeast 538 619 37,300 -2,032 Descending Minneapolis Center
Fri 01:41:33 PM 46.6397 -97.2142 65° Northeast 543 625 35,300 -2,032 Descending Minneapolis Center
Fri 01:42:35 PM 46.7011 -97.0208 65° Northeast 536 617 33,100 -2,352 Descending Minneapolis Center
Fri 01:43:38 PM 46.7756 -96.7958 64° Northeast 527 606 30,400 -2,400 Descending Minneapolis Center
Fri 01:44:40 PM 46.8500 -96.6142 59° Northeast 524 603 28,100 -2,516 Descending Minneapolis Center
Fri 01:45:42 PM 46.9211 -96.4381 59° Northeast 518 596 25,200 -2,855 Descending Minneapolis Center
Fri 01:46:44 PM 46.9881 -96.2744 59° Northeast 491 565 22,200 -2,903 Descending Minneapolis Center
Fri 01:47:46 PM 47.0514 -96.1131 60° Northeast 469 540 19,200 -3,000 Descending Minneapolis Center
Fri 01:48:48 PM 47.1250 -95.9289 60° Northeast 448 516 16,000 -3,097 Descending Minneapolis Center
Fri 01:49:50 PM 47.1822 -95.7853 60° Northeast 394 453 12,800 -2,565 Descending Minneapolis Center
Fri 01:50:52 PM 47.2325 -95.6572 60° Northeast 345 397 10,700 -1,694 Descending Minneapolis Center
Fri 01:51:54 PM 47.2722 -95.5600 59° Northeast 292 336 9,300 -1,548 Descending Minneapolis Center
Fri 01:52:56 PM 47.3069 -95.4669 61° Northeast 269 310 7,500 -1,694 Descending Minneapolis Center
Fri 01:53:58 PM 47.3175 -95.3622 82° East 262 302 5,800 -1,597 Descending Minneapolis Center
Fri 01:55:00 PM 47.3197 -95.2600 88° East 255 293 4,200 -964 Descending Minneapolis Center
Fri 01:56:15 PM 47.3403 -95.1500 75° East 249 287 3,600 -307 Descending Minneapolis Center
Fri 01:57:17 PM 47.3750 -95.0461 64° Northeast 237 273 3,500 -97 Descending Minneapolis Center

Login

Don't have an account? Register now (free) for customized features, flight alerts, and more!